createdAt,value
2023-03-12T00:02:52.746Z,5.23
2023-03-12T00:07:44.616Z,10.03
2023-03-12T00:12:36.399Z,6.23
2023-03-12T00:17:29.362Z,5.53
2023-03-12T00:22:25.854Z,3.65
2023-03-12T00:27:18.180Z,4.90
2023-03-12T00:32:10.158Z,6.30
2023-03-12T00:37:02.056Z,6.07
2023-03-12T00:41:53.895Z,8.30
2023-03-12T00:46:45.952Z,5.67
2023-03-12T00:51:38.685Z,7.05
2023-03-12T00:56:31.003Z,5.50
2023-03-12T01:01:23.019Z,4.80
2023-03-12T01:06:14.932Z,5.33
2023-03-12T01:11:07.214Z,8.68
2023-03-12T01:15:59.101Z,6.90
2023-03-12T01:20:51.098Z,5.67
2023-03-12T01:25:43.558Z,4.90
2023-03-12T01:30:35.442Z,3.65
2023-03-12T01:35:27.588Z,3.30
2023-03-12T01:40:21.287Z,5.63
2023-03-12T01:45:51.031Z,6.50
2023-03-12T01:50:42.962Z,8.35
2023-03-12T01:55:35.107Z,3.97
2023-03-12T02:00:27.789Z,8.43
2023-03-12T02:05:32.636Z,5.88
2023-03-12T02:10:25.546Z,5.22
2023-03-12T02:15:18.292Z,4.53
2023-03-12T02:20:20.868Z,5.28
2023-03-12T02:25:32.077Z,5.25
2023-03-12T02:30:26.065Z,3.78
2023-03-12T02:35:18.258Z,5.30
2023-03-12T02:40:16.110Z,4.88
2023-03-12T02:45:08.522Z,5.40
2023-03-12T02:50:00.444Z,6.43
2023-03-12T02:54:52.409Z,3.83
2023-03-12T02:59:44.361Z,9.53
2023-03-12T03:04:36.983Z,5.13
2023-03-12T03:09:28.827Z,3.83
2023-03-12T03:14:20.978Z,3.40
2023-03-12T03:19:15.641Z,5.07
2023-03-12T03:24:07.675Z,2.93
2023-03-12T03:28:59.586Z,3.75
2023-03-12T03:33:51.593Z,5.17
2023-03-12T03:38:47.099Z,3.57
2023-03-12T03:43:39.015Z,6.28
2023-03-12T03:48:31.848Z,3.55
2023-03-12T03:53:23.898Z,2.97
2023-03-12T03:58:16.536Z,3.78
2023-03-12T04:03:08.959Z,4.53
2023-03-12T04:08:03.230Z,4.73
2023-03-12T04:12:57.862Z,3.05
2023-03-12T04:17:49.939Z,4.45
2023-03-12T04:22:42.690Z,2.78
2023-03-12T04:27:35.977Z,5.25
2023-03-12T04:32:27.896Z,4.20
2023-03-12T04:37:19.941Z,3.45
2023-03-12T04:42:12.041Z,4.77
2023-03-12T04:47:05.904Z,3.58
2023-03-12T04:51:58.166Z,3.88
2023-03-12T04:56:50.937Z,3.60
2023-03-12T05:01:45.606Z,3.72
2023-03-12T05:06:43.917Z,6.57
2023-03-12T05:11:39.159Z,2.85
2023-03-12T05:16:32.318Z,3.08
2023-03-12T05:21:24.612Z,3.47
2023-03-12T05:26:25.399Z,3.92
2023-03-12T05:31:24.111Z,5.05
2023-03-12T05:36:16.302Z,3.53
2023-03-12T05:41:19.143Z,4.40
2023-03-12T05:46:11.701Z,3.92
2023-03-12T05:51:03.932Z,4.10
2023-03-12T05:56:06.500Z,3.22
2023-03-12T06:00:58.503Z,3.10
2023-03-12T06:05:52.395Z,3.50
2023-03-12T06:10:44.382Z,3.67
2023-03-12T06:15:36.325Z,2.83
2023-03-12T06:20:31.315Z,4.28
2023-03-12T06:25:23.432Z,2.33
2023-03-12T06:30:18.038Z,3.03
2023-03-12T06:35:10.064Z,4.10
2023-03-12T06:40:02.168Z,2.85
2023-03-12T06:44:53.976Z,2.63
2023-03-12T06:49:45.866Z,3.90
2023-03-12T06:54:38.340Z,3.20
2023-03-12T06:59:30.268Z,3.63
2023-03-12T07:04:22.160Z,4.05
2023-03-12T07:09:13.953Z,3.80
2023-03-12T07:14:05.822Z,2.87
2023-03-12T07:18:57.672Z,2.43
2023-03-12T07:23:50.668Z,3.17
2023-03-12T07:28:42.500Z,4.15
2023-03-12T07:33:34.993Z,3.83
2023-03-12T07:43:21.548Z,3.58
2023-03-12T07:48:15.295Z,3.05
2023-03-12T07:53:07.337Z,3.90
2023-03-12T07:57:59.236Z,2.72
2023-03-12T08:02:52.427Z,4.28
2023-03-12T08:07:45.316Z,3.22
2023-03-12T08:12:37.793Z,3.30
2023-03-12T08:17:29.657Z,3.03
2023-03-12T08:22:21.551Z,2.67
2023-03-12T08:27:13.692Z,2.63
2023-03-12T08:32:05.915Z,2.20
2023-03-12T08:36:57.892Z,2.20
2023-03-12T08:41:50.098Z,4.20
2023-03-12T08:46:41.862Z,2.95
2023-03-12T08:51:33.741Z,2.90
2023-03-12T08:56:25.553Z,3.47
2023-03-12T09:01:18.524Z,4.17
2023-03-12T09:06:15.142Z,3.83
2023-03-12T09:11:09.077Z,2.92
2023-03-12T09:16:03.045Z,3.05
2023-03-12T09:20:55.385Z,4.45
2023-03-12T09:25:47.548Z,3.72
2023-03-12T09:30:39.485Z,2.72
2023-03-12T09:35:34.390Z,4.90
2023-03-12T09:40:31.177Z,2.42
2023-03-12T09:45:25.948Z,3.35
2023-03-12T09:50:24.222Z,3.85
2023-03-12T09:55:19.524Z,3.67
2023-03-12T10:00:23.424Z,3.42
2023-03-12T10:05:32.948Z,4.28
2023-03-12T10:10:46.970Z,3.47
2023-03-12T10:15:55.836Z,4.63
2023-03-12T10:21:12.405Z,2.80
2023-03-12T10:26:18.733Z,3.47
2023-03-12T10:31:44.401Z,4.22
2023-03-12T10:36:40.696Z,3.33
2023-03-12T10:41:34.904Z,2.67
2023-03-12T10:46:56.728Z,2.95
2023-03-12T10:52:17.351Z,4.32
2023-03-12T10:57:09.543Z,3.08
2023-03-12T11:02:02.073Z,4.00
2023-03-12T11:12:25.155Z,3.38
2023-03-12T11:17:28.906Z,2.30
2023-03-12T11:22:33.356Z,4.80
2023-03-12T11:27:44.674Z,3.38
2023-03-12T11:32:40.723Z,12.55
2023-03-12T11:44:06.860Z,13.10
2023-03-12T11:48:58.845Z,15.55
2023-03-12T11:54:01.713Z,15.47
2023-03-12T11:59:13.202Z,19.75
2023-03-12T12:04:40.822Z,28.00
2023-03-12T12:09:45.448Z,188.55
2023-03-12T12:15:01.181Z,222.07
2023-03-12T12:20:15.638Z,192.55
2023-03-12T12:25:28.767Z,175.00
2023-03-12T12:30:35.898Z,181.68
2023-03-12T12:35:34.925Z,258.52
2023-03-12T12:40:37.720Z,362.00
2023-03-12T12:45:31.086Z,312.95
2023-03-12T12:50:27.216Z,224.57
2023-03-12T12:55:35.521Z,222.88
2023-03-12T13:00:47.439Z,244.55
2023-03-12T13:06:00.707Z,253.07
2023-03-12T13:11:17.574Z,328.33
2023-03-12T13:16:27.428Z,345.05
2023-03-12T13:21:36.223Z,336.98
2023-03-12T13:26:32.361Z,287.27
2023-03-12T13:31:24.320Z,282.60
2023-03-12T13:36:16.321Z,280.38
2023-03-12T13:41:09.752Z,272.13
2023-03-12T13:46:22.397Z,257.90
2023-03-12T13:56:15.676Z,428.13
2023-03-12T14:01:14.876Z,361.35
2023-03-12T14:06:34.616Z,324.77
2023-03-12T14:12:15.040Z,330.75
2023-03-12T14:17:24.313Z,310.27
2023-03-12T14:33:16.232Z,181.02
2023-03-12T14:38:39.314Z,159.50
2023-03-12T14:43:54.269Z,164.65
2023-03-12T14:48:51.692Z,128.95
2023-03-12T14:53:46.783Z,122.25
2023-03-12T14:58:49.280Z,110.47
2023-03-12T15:03:45.197Z,115.90
2023-03-12T15:08:40.087Z,127.88
2023-03-12T15:13:36.403Z,109.53
2023-03-12T15:18:55.804Z,107.68
2023-03-12T15:23:51.008Z,102.50
2023-03-12T15:28:44.026Z,143.77
2023-03-12T15:33:36.491Z,101.57
2023-03-12T15:38:28.583Z,33.78
2023-03-12T15:43:24.026Z,58.58
2023-03-12T15:48:26.982Z,28.17
2023-03-12T15:53:18.773Z,79.55
2023-03-12T15:58:29.961Z,86.10
2023-03-12T16:03:22.211Z,38.78
2023-03-12T16:08:55.689Z,70.70
2023-03-12T16:13:49.195Z,56.78
2023-03-12T16:18:43.666Z,40.03
2023-03-12T16:23:36.926Z,32.55
2023-03-12T16:28:28.982Z,39.00
2023-03-12T16:33:23.893Z,38.92
2023-03-12T16:38:23.738Z,48.78
2023-03-12T16:43:28.349Z,39.15
2023-03-12T16:48:27.294Z,39.10
2023-03-12T16:53:22.804Z,35.72
2023-03-12T16:58:16.981Z,34.83
2023-03-12T17:03:18.004Z,42.17
2023-03-12T17:08:19.272Z,42.25
2023-03-12T17:13:22.594Z,44.00
2023-03-12T17:18:14.587Z,42.55
2023-03-12T17:23:06.567Z,44.30
2023-03-12T17:29:30.457Z,46.10
2023-03-12T17:44:40.537Z,42.22
2023-03-12T17:49:32.393Z,44.93
2023-03-12T17:54:24.312Z,49.93
2023-03-12T17:59:18.209Z,45.73
2023-03-12T18:04:10.094Z,43.67
2023-03-12T18:09:31.431Z,42.70
2023-03-12T18:14:23.538Z,43.72
2023-03-12T18:19:16.178Z,44.55
2023-03-12T18:24:14.079Z,48.58
2023-03-12T18:29:09.643Z,48.95
2023-03-12T18:34:01.532Z,40.83
2023-03-12T18:38:53.361Z,41.03
2023-03-12T18:43:45.185Z,41.43
2023-03-12T18:48:42.293Z,43.13
2023-03-12T18:53:35.597Z,41.83
2023-03-12T18:58:28.868Z,40.57
2023-03-12T19:03:22.579Z,40.67
2023-03-12T19:08:14.897Z,41.70
2023-03-12T19:13:07.070Z,38.10
2023-03-12T19:17:58.858Z,40.15
2023-03-12T19:22:50.801Z,38.87
2023-03-12T19:27:42.755Z,38.63
2023-03-12T19:32:43.195Z,40.77
2023-03-12T19:37:35.838Z,37.30
2023-03-12T19:42:27.691Z,38.60
2023-03-12T19:47:21.998Z,37.30
2023-03-12T19:52:14.126Z,37.22
2023-03-12T19:57:06.621Z,37.88
2023-03-12T20:02:01.685Z,35.92
2023-03-12T20:06:58.674Z,39.05
2023-03-12T20:11:50.488Z,38.03
2023-03-12T20:16:43.447Z,35.97
2023-03-12T20:21:35.302Z,36.53
2023-03-12T20:26:27.219Z,35.77
2023-03-12T20:31:19.215Z,34.17
2023-03-12T20:36:13.092Z,35.88
2023-03-12T20:41:05.685Z,37.55
2023-03-12T20:45:57.521Z,34.50
2023-03-12T20:50:54.358Z,33.27
2023-03-12T20:55:46.188Z,32.75
2023-03-12T21:00:39.153Z,31.80
2023-03-12T21:05:32.144Z,30.83
2023-03-12T21:10:24.474Z,31.10
2023-03-12T21:15:16.361Z,31.92
2023-03-12T21:20:17.331Z,33.63
2023-03-12T21:25:10.294Z,29.17
2023-03-12T21:30:02.232Z,30.70
2023-03-12T21:34:54.034Z,28.95
2023-03-12T21:39:50.138Z,27.40
2023-03-12T21:44:43.360Z,28.23
2023-03-12T21:49:35.929Z,26.50
2023-03-12T21:54:34.631Z,29.75
2023-03-12T21:59:26.601Z,27.65
2023-03-12T22:04:18.493Z,26.60
2023-03-12T22:09:10.523Z,24.87
2023-03-12T22:14:02.647Z,25.98
2023-03-12T22:18:57.163Z,27.30
2023-03-12T22:23:53.624Z,27.70
2023-03-12T22:29:02.025Z,24.88
2023-03-12T22:33:53.993Z,23.42
2023-03-12T22:38:47.797Z,23.17
2023-03-12T22:43:39.698Z,23.55
2023-03-12T22:48:31.883Z,22.15
2023-03-12T22:53:24.934Z,22.33
2023-03-12T22:58:16.837Z,23.45
2023-03-12T23:03:08.644Z,22.00
2023-03-12T23:08:00.513Z,22.87
2023-03-12T23:12:52.415Z,22.77
2023-03-12T23:17:44.265Z,20.50
2023-03-12T23:22:36.207Z,22.17
2023-03-12T23:27:28.387Z,19.50
2023-03-12T23:32:20.290Z,19.40
2023-03-12T23:37:12.198Z,21.40
2023-03-12T23:42:07.574Z,22.42
2023-03-12T23:46:59.341Z,20.42
2023-03-12T23:51:51.438Z,19.27
2023-03-12T23:56:43.487Z,18.48
